Time;durP1;ratioP1;P1;durP2;ratioP2;P2;SDS_P1;SDS_P2;PMS_P1;PMS_P2;Temp;Humidity;BMP_temperature;BMP_pressure;BME280_temperature;BME280_humidity;BME280_pressure;Samples;Min_cycle;Max_cycle;Signal;HPM_P1;HPM_P2
2024/02/06 00:01:48;;;;;;;12.70;8.00;;;;;;;3.89;63.89;95080.16;4982900;28;20045;-74
2024/02/06 00:04:14;;;;;;;11.68;7.28;;;;;;;4.21;64.44;95137.63;5006248;28;20065;-74
2024/02/06 00:06:40;;;;;;;13.10;8.40;;;;;;;4.12;64.17;95132.94;5003341;28;20044;-74
2024/02/06 00:09:05;;;;;;;14.68;8.90;;;;;;;4.06;64.69;95153.81;4977712;28;20030;-74
2024/02/06 00:11:30;;;;;;;14.45;8.63;;;;;;;4.05;63.83;95129.03;5006029;28;20045;-74
2024/02/06 00:13:56;;;;;;;12.40;7.75;;;;;;;4.30;64.13;95126.84;5008258;28;20507;-74
2024/02/06 00:16:21;;;;;;;13.00;7.07;;;;;;;4.14;64.65;95128.53;5006158;28;20045;-75
2024/02/06 00:18:47;;;;;;;11.52;7.63;;;;;;;4.15;64.15;95119.91;4995969;28;20030;-74
2024/02/06 00:21:13;;;;;;;12.55;7.15;;;;;;;4.19;63.25;95140.25;5006102;28;20061;-74
2024/02/06 00:23:38;;;;;;;12.40;7.28;;;;;;;4.12;64.08;95148.34;5007890;28;20018;-75
2024/02/06 00:26:04;;;;;;;8.90;6.25;;;;;;;3.63;64.46;95089.22;5003356;28;20453;-74
2024/02/06 00:28:29;;;;;;;9.60;6.10;;;;;;;3.94;64.85;95125.28;4992161;28;20504;-74
2024/02/06 00:30:54;;;;;;;9.18;5.20;;;;;;;4.15;64.89;95128.47;5008333;28;20026;-74
2024/02/06 00:33:20;;;;;;;6.95;4.32;;;;;;;3.96;65.52;95117.50;5006261;28;20033;-74
2024/02/06 00:35:45;;;;;;;10.13;4.60;;;;;;;3.89;65.25;95111.81;5024544;28;20053;-74
2024/02/06 00:38:12;;;;;;;6.22;3.83;;;;;;;4.10;65.14;95117.59;4993724;28;20350;-74
2024/02/06 00:40:38;;;;;;;7.45;4.55;;;;;;;3.96;64.40;95128.59;5023529;28;20057;-74
2024/02/06 00:43:03;;;;;;;13.68;6.35;;;;;;;4.14;63.40;95138.84;4992882;28;20030;-74
2024/02/06 00:45:29;;;;;;;14.90;8.43;;;;;;;4.18;62.82;95123.16;5010175;28;20087;-74
2024/02/06 00:47:54;;;;;;;10.07;7.00;;;;;;;4.05;62.83;95111.88;5003391;28;20030;-74
2024/02/06 00:50:19;;;;;;;10.43;6.82;;;;;;;4.23;62.08;95126.34;4994655;28;20033;-74
2024/02/06 00:52:45;;;;;;;9.15;5.97;;;;;;;4.01;62.42;95125.78;5029552;28;20041;-74
2024/02/06 00:55:12;;;;;;;12.20;6.68;;;;;;;4.05;63.33;95139.31;4993512;28;20033;-74
2024/02/06 00:57:37;;;;;;;9.77;4.80;;;;;;;3.91;63.63;95122.03;5010536;28;20033;-74
2024/02/06 01:00:03;;;;;;;7.75;4.43;;;;;;;3.99;63.91;95132.75;5012089;28;20514;-74
2024/02/06 01:02:29;;;;;;;11.38;6.28;;;;;;;3.89;63.26;95121.28;5005874;28;20514;-74
2024/02/06 01:04:55;;;;;;;10.43;5.15;;;;;;;3.82;63.71;95113.06;4976231;28;20084;-74
2024/02/06 01:07:20;;;;;;;10.38;5.35;;;;;;;3.97;64.07;95125.13;5006626;28;20029;-74
2024/02/06 01:09:46;;;;;;;7.57;3.97;;;;;;;3.88;64.20;95135.88;4992367;28;20598;-74
2024/02/06 01:12:11;;;;;;;6.97;3.67;;;;;;;3.96;65.52;95133.75;5008627;28;20060;-74
2024/02/06 01:14:37;;;;;;;6.00;3.47;;;;;;;3.95;64.59;95137.22;5023986;28;20037;-75
2024/02/06 01:17:03;;;;;;;7.03;3.85;;;;;;;3.91;65.10;95115.16;5009223;28;20037;-74
2024/02/06 01:19:29;;;;;;;5.63;3.60;;;;;;;3.97;64.19;95139.72;4993221;28;20029;-74
2024/02/06 01:21:54;;;;;;;7.93;3.53;;;;;;;4.24;63.15;95132.31;4987292;28;20030;-74
2024/02/06 01:24:19;;;;;;;7.03;3.63;;;;;;;4.31;61.64;95123.34;5000949;28;20479;-74
2024/02/06 01:26:45;;;;;;;6.82;3.80;;;;;;;4.32;61.58;95114.72;5000578;28;20470;-74
2024/02/06 01:29:10;;;;;;;5.45;3.47;;;;;;;4.39;61.04;95105.75;5006588;28;20099;-74
2024/02/06 01:31:36;;;;;;;7.90;3.90;;;;;;;4.45;60.82;95127.75;5012638;28;20068;-74
2024/02/06 01:34:01;;;;;;;6.78;3.70;;;;;;;4.42;61.46;95127.91;5011499;28;20393;-74
2024/02/06 01:36:27;;;;;;;6.35;3.58;;;;;;;4.56;61.04;95127.16;4983099;28;20440;-74
2024/02/06 01:38:52;;;;;;;6.05;3.63;;;;;;;4.57;61.76;95132.25;4975875;28;20022;-75
2024/02/06 01:41:17;;;;;;;5.30;3.30;;;;;;;4.37;61.65;95123.00;5004913;28;20057;-74
2024/02/06 01:43:43;;;;;;;7.13;3.72;;;;;;;4.73;60.68;95137.38;4988655;28;20045;-74
2024/02/06 01:46:08;;;;;;;6.65;3.22;;;;;;;4.47;60.57;95144.75;5008364;28;20041;-74
2024/02/06 01:48:34;;;;;;;7.65;4.88;;;;;;;4.35;60.46;95124.84;4993566;28;20030;-74
2024/02/06 01:51:00;;;;;;;7.85;4.57;;;;;;;4.35;61.30;95119.69;4993725;28;20056;-74
2024/02/06 01:53:26;;;;;;;8.63;4.40;;;;;;;4.29;62.07;95125.19;4994547;28;20079;-74
2024/02/06 01:55:51;;;;;;;7.78;4.30;;;;;;;4.55;61.74;95133.25;4976344;28;20025;-74
2024/02/06 01:58:16;;;;;;;8.05;4.35;;;;;;;4.44;62.22;95126.91;4990534;28;20057;-74
2024/02/06 02:00:42;;;;;;;5.53;3.80;;;;;;;4.53;62.48;95124.75;4994400;28;20041;-74
2024/02/06 02:03:08;;;;;;;9.35;5.28;;;;;;;4.15;63.13;95143.91;5021087;28;20029;-74
2024/02/06 02:05:33;;;;;;;7.75;4.80;;;;;;;4.40;62.25;95128.00;4993711;28;20073;-74
2024/02/06 02:07:59;;;;;;;6.72;4.28;;;;;;;4.28;62.94;95133.78;4995044;28;20455;-74
2024/02/06 02:10:24;;;;;;;6.53;4.70;;;;;;;4.17;62.66;95136.09;5008016;28;20022;-74
2024/02/06 02:12:50;;;;;;;7.53;4.82;;;;;;;4.15;62.53;95127.63;5021724;28;20469;-74
2024/02/06 02:15:16;;;;;;;10.38;4.47;;;;;;;4.20;62.44;95126.47;4993537;28;20029;-74
2024/02/06 02:17:42;;;;;;;6.63;3.80;;;;;;;4.25;61.28;95115.94;5029582;28;20029;-74
2024/02/06 02:20:08;;;;;;;6.57;3.65;;;;;;;4.14;60.57;95126.81;5014373;28;20034;-74
2024/02/06 02:22:34;;;;;;;5.97;3.45;;;;;;;3.91;62.04;95128.00;5007559;28;20025;-74
2024/02/06 02:24:59;;;;;;;7.85;3.95;;;;;;;3.87;62.00;95113.63;5010493;28;20025;-74
2024/02/06 02:27:25;;;;;;;6.35;4.03;;;;;;;4.21;62.72;95123.00;5010957;28;20041;-74
2024/02/06 02:29:51;;;;;;;6.18;3.67;;;;;;;4.00;63.72;95119.81;4997555;28;20037;-74
2024/02/06 02:32:16;;;;;;;6.35;3.90;;;;;;;3.77;63.17;95113.28;4988454;28;20029;-74
2024/02/06 02:34:48;;;;;;;7.13;4.00;;;;;;;3.93;62.53;95123.63;4980872;28;20049;-74
2024/02/06 02:37:14;;;;;;;6.88;4.13;;;;;;;4.02;62.90;95123.13;4993030;28;20503;-74
2024/02/06 02:39:39;;;;;;;5.40;3.30;;;;;;;3.89;61.03;95116.13;5003430;28;20049;-74
2024/02/06 02:42:05;;;;;;;6.35;3.33;;;;;;;4.02;61.37;95133.41;4996629;28;20045;-74
2024/02/06 02:44:31;;;;;;;5.50;3.67;;;;;;;3.78;61.54;95127.78;5005639;28;20092;-74
2024/02/06 02:46:56;;;;;;;8.20;5.00;;;;;;;3.88;60.41;95128.16;5030543;28;20036;-74
2024/02/06 02:49:21;;;;;;;7.40;4.60;;;;;;;3.69;61.95;95133.41;4980979;28;20045;-75
2024/02/06 02:51:49;;;;;;;7.38;4.78;;;;;;;3.62;62.16;95149.22;5023655;28;20092;-74
2024/02/06 02:54:16;;;;;;;6.78;3.83;;;;;;;3.35;63.00;95098.31;4992652;28;20396;-74
2024/02/06 02:56:41;;;;;;;12.05;7.43;;;;;;;3.71;62.39;95134.16;5006347;28;20045;-75
2024/02/06 02:59:07;;;;;;;13.77;7.00;;;;;;;3.70;62.24;95142.78;4997839;28;20108;-74
2024/02/06 03:01:32;;;;;;;8.63;4.47;;;;;;;3.65;63.14;95131.06;4997609;28;20484;-75
2024/02/06 03:03:57;;;;;;;9.07;3.72;;;;;;;3.74;62.77;95146.03;5001593;28;20038;-74
2024/02/06 03:06:23;;;;;;;8.40;3.33;;;;;;;3.45;63.01;95148.31;5029408;28;20048;-74
2024/02/06 03:08:48;;;;;;;7.25;3.15;;;;;;;3.41;64.84;95161.41;5012111;28;20013;-74
2024/02/06 03:11:14;;;;;;;7.30;3.53;;;;;;;3.04;62.60;95142.66;5028759;28;20545;-74
2024/02/06 03:13:42;;;;;;;5.20;3.20;;;;;;;3.03;62.88;95170.03;4993749;28;20424;-74
2024/02/06 03:16:08;;;;;;;5.35;3.42;;;;;;;2.87;64.21;95158.81;5005945;28;20054;-74
2024/02/06 03:18:34;;;;;;;9.70;4.50;;;;;;;2.86;64.88;95170.00;5012757;28;20025;-74
2024/02/06 03:20:59;;;;;;;9.40;4.82;;;;;;;2.98;64.60;95173.72;4992687;28;20443;-74
2024/02/06 03:23:24;;;;;;;12.05;5.88;;;;;;;2.49;65.91;95163.19;5004349;28;20033;-74
2024/02/06 03:25:50;;;;;;;7.68;3.88;;;;;;;2.62;64.94;95177.13;4990969;28;20030;-74
2024/02/06 03:28:17;;;;;;;5.18;3.05;;;;;;;2.44;65.08;95165.94;4995918;28;20041;-74
2024/02/06 03:30:43;;;;;;;6.55;3.03;;;;;;;2.49;65.42;95176.00;5014600;28;20124;-74
2024/02/06 03:33:09;;;;;;;7.30;3.60;;;;;;;2.54;66.22;95195.41;5007417;28;20464;-75
2024/02/06 03:35:34;;;;;;;9.35;5.43;;;;;;;2.71;66.33;95181.81;5013069;28;20045;-74
2024/02/06 03:38:00;;;;;;;6.88;3.70;;;;;;;2.60;66.65;95184.88;5010453;28;20033;-74
2024/02/06 03:40:25;;;;;;;6.38;3.67;;;;;;;2.66;65.85;95184.59;5006464;28;20518;-74
2024/02/06 03:42:51;;;;;;;5.65;3.70;;;;;;;2.76;64.68;95190.13;4990540;28;20530;-74
2024/02/06 03:45:16;;;;;;;6.35;3.38;;;;;;;2.61;66.06;95180.56;5011363;28;20040;-74
2024/02/06 03:47:41;;;;;;;4.93;3.20;;;;;;;2.47;66.30;95184.59;4996192;28;20025;-74
2024/02/06 03:50:07;;;;;;;4.95;3.30;;;;;;;2.50;66.12;95175.09;4992612;28;20037;-74
2024/02/06 03:52:33;;;;;;;6.20;3.10;;;;;;;2.49;67.45;95150.38;4980613;28;20060;-75
2024/02/06 03:54:58;;;;;;;4.60;2.90;;;;;;;2.56;67.03;95172.25;5027410;28;20036;-74
2024/02/06 03:57:24;;;;;;;8.23;3.63;;;;;;;2.58;66.47;95178.97;5009884;28;20026;-74
2024/02/06 03:59:49;;;;;;;4.78;3.17;;;;;;;2.55;66.99;95160.34;5013865;28;20541;-74
2024/02/06 04:02:17;;;;;;;6.50;3.22;;;;;;;2.53;67.15;95175.78;4994549;28;20029;-74
2024/02/06 04:04:43;;;;;;;5.45;2.97;;;;;;;2.50;65.62;95167.41;5012279;28;20041;-74
2024/02/06 04:07:08;;;;;;;7.97;2.90;;;;;;;2.52;66.99;95170.72;5009703;28;20021;-74
2024/02/06 04:09:34;;;;;;;5.95;3.40;;;;;;;2.39;66.93;95176.41;5009084;28;20036;-74
2024/02/06 04:11:59;;;;;;;7.13;3.28;;;;;;;2.38;67.28;95150.84;5012779;28;20033;-74
2024/02/06 04:14:25;;;;;;;7.15;2.97;;;;;;;2.45;66.79;95170.16;5009084;28;20503;-74
2024/02/06 04:16:54;;;;;;;5.03;3.20;;;;;;;2.26;66.79;95164.19;5007128;28;20049;-74
2024/02/06 04:19:21;;;;;;;5.85;2.85;;;;;;;2.52;65.52;95163.88;5004881;28;20116;-74
2024/02/06 04:21:46;;;;;;;5.53;3.15;;;;;;;2.12;65.35;95101.59;5029578;28;20025;-74
2024/02/06 04:24:12;;;;;;;5.63;2.78;;;;;;;2.44;65.82;95163.38;4992619;28;20029;-74
2024/02/06 04:26:38;;;;;;;5.03;3.17;;;;;;;2.20;66.88;95168.72;5004940;28;20026;-74
2024/02/06 04:29:04;;;;;;;5.50;2.88;;;;;;;2.57;65.73;95172.19;4996048;28;20037;-74
2024/02/06 04:31:30;;;;;;;5.03;3.05;;;;;;;2.51;65.37;95175.03;5011310;28;20426;-75
2024/02/06 04:33:55;;;;;;;6.88;3.65;;;;;;;2.20;66.45;95175.56;5012153;28;20032;-74
2024/02/06 04:36:22;;;;;;;6.05;4.13;;;;;;;2.21;65.69;95167.81;4975619;28;20069;-74
2024/02/06 04:38:51;;;;;;;6.68;3.45;;;;;;;2.06;66.36;95173.59;5012578;28;20053;-74
2024/02/06 04:41:16;;;;;;;8.73;4.13;;;;;;;2.19;66.18;95167.03;4998909;28;20495;-75
2024/02/06 04:43:42;;;;;;;6.05;3.22;;;;;;;2.17;66.29;95184.25;5029786;28;20029;-74
2024/02/06 04:46:07;;;;;;;7.13;3.80;;;;;;;1.92;68.28;95196.44;5008302;28;20046;-74
2024/02/06 04:48:33;;;;;;;6.15;3.38;;;;;;;1.99;65.81;95182.47;5025500;28;20673;-74
2024/02/06 04:50:58;;;;;;;7.93;3.58;;;;;;;1.67;66.73;95174.44;5012109;28;20033;-74
2024/02/06 04:53:24;;;;;;;4.70;3.40;;;;;;;1.96;65.93;95188.56;5020039;28;20029;-73
2024/02/06 04:55:49;;;;;;;5.68;3.40;;;;;;;2.12;66.33;95196.44;5002518;28;20401;-73
2024/02/06 04:58:15;;;;;;;7.40;3.70;;;;;;;2.12;66.30;95172.53;5001514;28;20037;-74
2024/02/06 05:00:40;;;;;;;7.18;4.10;;;;;;;1.98;66.76;95196.19;5008251;28;20492;-74
2024/02/06 05:03:06;;;;;;;14.80;4.50;;;;;;;1.96;67.42;95208.22;5020715;28;20034;-74
2024/02/06 05:05:31;;;;;;;6.03;3.05;;;;;;;1.88;67.41;95200.03;4989989;28;20022;-74
2024/02/06 05:07:57;;;;;;;5.63;2.90;;;;;;;1.78;67.74;95182.50;4974878;28;20556;-74
2024/02/06 05:10:22;;;;;;;6.07;3.45;;;;;;;1.59;68.07;95185.88;5012137;28;20038;-74
2024/02/06 05:12:48;;;;;;;7.35;3.55;;;;;;;1.84;67.81;95203.63;4996410;28;20029;-74
2024/02/06 05:15:14;;;;;;;6.43;3.78;;;;;;;1.88;67.09;95200.88;5029129;28;20056;-74
2024/02/06 05:17:41;;;;;;;5.90;3.22;;;;;;;1.91;66.91;95192.22;5002582;28;20038;-74
2024/02/06 05:20:08;;;;;;;8.30;3.08;;;;;;;1.73;67.28;95199.78;5005963;28;20536;-74
2024/02/06 05:22:37;;;;;;;5.78;3.20;;;;;;;1.96;67.44;95190.28;4994447;28;20419;-74
2024/02/06 05:25:04;;;;;;;4.78;3.05;;;;;;;1.77;67.65;95187.69;5009546;28;20033;-73
2024/02/06 05:27:29;;;;;;;6.82;3.35;;;;;;;2.03;67.26;95199.38;4989852;28;20018;-73
2024/02/06 05:29:54;;;;;;;5.18;3.58;;;;;;;1.69;68.02;95182.88;5010796;28;20034;-73
2024/02/06 05:32:20;;;;;;;6.00;3.38;;;;;;;1.70;68.82;95187.13;5023322;28;20095;-73
2024/02/06 05:34:45;;;;;;;6.95;5.03;;;;;;;1.84;67.03;95209.59;5028942;28;20065;-74
2024/02/06 05:37:11;;;;;;;5.55;3.70;;;;;;;1.72;67.06;95185.31;5028170;28;20976;-73
2024/02/06 05:39:36;;;;;;;6.57;3.42;;;;;;;1.19;68.98;95185.78;4979104;28;20546;-74
2024/02/06 05:42:03;;;;;;;7.15;3.78;;;;;;;1.65;67.86;95201.84;5015239;28;20029;-74
2024/02/06 05:44:28;;;;;;;7.88;3.70;;;;;;;1.47;68.71;95194.91;4997026;28;20522;-74
2024/02/06 05:46:53;;;;;;;6.93;3.63;;;;;;;1.40;69.35;95214.81;4998850;28;20033;-74
2024/02/06 05:49:19;;;;;;;11.32;3.22;;;;;;;1.50;68.42;95184.53;4998147;28;20025;-73
2024/02/06 05:51:44;;;;;;;6.38;3.55;;;;;;;1.39;69.19;95167.06;4987568;28;20030;-73
2024/02/06 05:54:10;;;;;;;7.15;3.65;;;;;;;1.41;68.96;95183.19;4995361;28;20134;-73
2024/02/06 05:56:36;;;;;;;7.22;3.92;;;;;;;1.60;68.92;95196.06;5010543;28;20037;-74
2024/02/06 05:59:02;;;;;;;7.45;3.50;;;;;;;1.54;68.66;95175.84;4999791;28;20036;-74
2024/02/06 06:01:28;;;;;;;6.43;3.35;;;;;;;1.77;68.56;95198.75;5003068;28;20568;-74
2024/02/06 06:03:53;;;;;;;5.63;3.40;;;;;;;1.77;68.79;95191.06;5015587;28;20029;-74
2024/02/06 06:06:19;;;;;;;5.20;3.20;;;;;;;1.18;69.29;95145.75;5030514;28;20041;-74
2024/02/06 06:08:44;;;;;;;8.57;3.40;;;;;;;1.72;68.92;95205.78;5014421;28;20033;-74
2024/02/06 06:11:09;;;;;;;5.82;3.28;;;;;;;1.63;69.30;95210.47;5015653;28;20036;-74
2024/02/06 06:13:35;;;;;;;8.23;3.40;;;;;;;1.67;69.37;95197.50;5025294;28;20026;-74
2024/02/06 06:16:00;;;;;;;5.20;3.10;;;;;;;1.97;68.32;95218.41;5024446;28;20042;-74
2024/02/06 06:18:26;;;;;;;6.22;3.15;;;;;;;2.07;66.92;95213.72;4997674;28;20482;-73
2024/02/06 06:20:51;;;;;;;5.93;3.45;;;;;;;1.91;67.66;95217.84;5028267;28;20032;-74
2024/02/06 06:23:16;;;;;;;8.15;3.45;;;;;;;1.69;68.97;95221.28;5027814;28;20029;-74
2024/02/06 06:25:42;;;;;;;6.55;3.70;;;;;;;1.82;68.92;95220.81;5000582;28;20034;-73
2024/02/06 06:28:08;;;;;;;4.80;3.05;;;;;;;1.94;68.97;95215.16;5026806;28;20029;-73
2024/02/06 06:30:33;;;;;;;8.48;3.47;;;;;;;1.94;68.39;95207.47;5006865;28;20435;-81
2024/02/06 06:32:59;;;;;;;11.98;5.32;;;;;;;1.77;68.98;95201.31;4991550;28;20102;-74
2024/02/06 06:35:24;;;;;;;10.13;4.47;;;;;;;2.13;68.52;95216.03;4990772;28;20052;-74
2024/02/06 06:37:50;;;;;;;7.82;3.85;;;;;;;2.12;68.04;95204.13;5002781;28;20037;-73
2024/02/06 06:40:15;;;;;;;5.72;3.40;;;;;;;2.24;67.83;95208.69;4989737;28;20523;-77
2024/02/06 06:42:41;;;;;;;7.05;3.15;;;;;;;2.36;67.70;95215.00;5004752;28;20030;-72
2024/02/06 06:45:08;;;;;;;5.00;3.13;;;;;;;2.11;68.07;95205.00;5006169;28;20033;-73
2024/02/06 06:47:33;;;;;;;6.70;4.63;;;;;;;2.06;67.82;95206.91;5000116;28;20037;-73
2024/02/06 06:49:59;;;;;;;5.35;3.40;;;;;;;2.15;68.03;95188.59;5004681;28;20036;-72
2024/02/06 06:52:24;;;;;;;5.47;3.30;;;;;;;2.12;68.29;95209.25;5028617;28;20068;-72
2024/02/06 06:54:50;;;;;;;7.07;3.67;;;;;;;2.21;68.18;95193.44;5006569;28;20026;-74
2024/02/06 06:57:15;;;;;;;6.30;3.42;;;;;;;2.41;68.68;95205.38;5008589;28;20064;-73
2024/02/06 06:59:41;;;;;;;5.57;3.05;;;;;;;2.50;68.51;95216.97;5022669;28;20022;-73
2024/02/06 07:02:06;;;;;;;5.47;3.63;;;;;;;2.57;68.24;95202.97;5014086;28;20033;-74
2024/02/06 07:04:32;;;;;;;5.10;3.00;;;;;;;2.45;68.78;95185.56;5032929;28;20033;-76
2024/02/06 07:06:57;;;;;;;6.75;3.50;;;;;;;2.60;68.15;95192.56;4998589;28;20022;-74
2024/02/06 07:09:25;;;;;;;6.63;3.85;;;;;;;2.76;68.13;95197.84;5015164;28;20034;-74
2024/02/06 07:11:50;;;;;;;7.57;3.78;;;;;;;2.83;67.92;95199.19;5022362;28;20029;-75
2024/02/06 07:14:16;;;;;;;8.80;4.22;;;;;;;2.87;67.82;95203.31;4979287;28;20029;-75
2024/02/06 07:16:42;;;;;;;7.47;4.75;;;;;;;2.85;69.03;95209.41;5011463;28;20029;-75
2024/02/06 07:19:07;;;;;;;4.80;3.17;;;;;;;2.96;69.05;95196.06;5031720;28;20042;-75
2024/02/06 07:21:33;;;;;;;6.30;3.97;;;;;;;3.20;67.40;95189.75;5014817;28;20508;-75
2024/02/06 07:23:58;;;;;;;5.63;3.35;;;;;;;3.49;66.83;95193.50;5014463;28;20079;-75
2024/02/06 07:26:24;;;;;;;5.18;3.25;;;;;;;3.89;67.03;95195.81;4998575;28;20025;-75
2024/02/06 07:28:49;;;;;;;7.22;3.80;;;;;;;3.95;65.83;95170.63;4998029;28;20040;-75
2024/02/06 07:31:15;;;;;;;6.38;3.88;;;;;;;4.15;64.19;95176.47;5032436;28;20097;-75
2024/02/06 07:33:41;;;;;;;8.02;4.22;;;;;;;5.11;63.29;95191.91;5013498;28;20459;-74
2024/02/06 07:36:06;;;;;;;6.18;3.35;;;;;;;5.31;62.35;95195.13;4976946;28;20053;-75
2024/02/06 07:38:32;;;;;;;5.10;3.45;;;;;;;5.50;61.40;95197.50;5019011;28;20049;-74
2024/02/06 07:40:58;;;;;;;10.20;5.47;;;;;;;6.26;59.80;95202.53;5001413;28;20377;-75
2024/02/06 07:43:25;;;;;;;7.22;3.80;;;;;;;7.04;56.37;95164.19;5013883;28;20492;-75
2024/02/06 07:45:51;;;;;;;6.00;3.17;;;;;;;8.91;52.88;95198.31;5006645;28;20059;-75
2024/02/06 07:48:16;;;;;;;5.20;2.90;;;;;;;10.89;47.14;95195.84;5015862;28;20388;-75
2024/02/06 07:50:42;;;;;;;7.18;3.33;;;;;;;12.47;43.96;95196.91;5032292;28;20067;-74
2024/02/06 07:53:07;;;;;;;6.57;4.00;;;;;;;13.80;38.87;95181.91;5014181;28;20029;-75
2024/02/06 07:55:33;;;;;;;5.57;3.63;;;;;;;14.97;37.51;95181.66;5030859;28;20350;-75
2024/02/06 07:57:59;;;;;;;5.45;3.20;;;;;;;15.93;35.61;95183.81;5012883;28;20110;-75
2024/02/06 08:00:24;;;;;;;6.32;4.32;;;;;;;17.14;33.64;95164.59;5025917;28;20095;-75
2024/02/06 08:02:50;;;;;;;8.68;4.47;;;;;;;17.73;30.43;95169.81;5013275;28;20108;-75
2024/02/06 08:05:16;;;;;;;8.32;5.30;;;;;;;18.11;30.92;95177.25;5010231;28;20469;-75
2024/02/06 08:07:42;;;;;;;5.75;4.18;;;;;;;18.81;30.68;95174.91;5011949;28;20054;-73
2024/02/06 08:10:08;;;;;;;6.63;3.88;;;;;;;19.87;27.88;95168.34;5012935;28;20034;-75
2024/02/06 08:12:33;;;;;;;6.03;4.25;;;;;;;20.04;27.36;95180.38;5012824;28;20522;-74
2024/02/06 08:15:00;;;;;;;6.18;3.70;;;;;;;18.71;30.27;95179.50;4995854;28;20037;-73
2024/02/06 08:17:26;;;;;;;9.32;5.80;;;;;;;17.90;28.96;95164.63;4999422;28;20048;-74
2024/02/06 08:19:51;;;;;;;9.07;5.13;;;;;;;17.43;31.05;95172.06;5014270;28;20446;-73
2024/02/06 08:22:17;;;;;;;7.95;4.78;;;;;;;16.97;31.79;95176.84;5051242;28;20033;-73
2024/02/06 08:24:42;;;;;;;8.55;4.82;;;;;;;15.90;30.02;95165.78;5013749;28;20021;-74
2024/02/06 08:27:08;;;;;;;7.90;5.32;;;;;;;15.09;32.31;95166.59;4997499;28;20033;-75
2024/02/06 08:29:35;;;;;;;6.93;4.10;;;;;;;14.44;36.71;95174.41;5031157;28;20071;-75
2024/02/06 08:32:00;;;;;;;5.20;3.67;;;;;;;14.39;37.49;95171.38;5013645;28;20605;-75
2024/02/06 08:34:26;;;;;;;8.10;4.13;;;;;;;14.03;36.40;95171.19;4996056;28;20057;-75
2024/02/06 08:36:51;;;;;;;6.03;3.85;;;;;;;13.72;35.79;95163.50;5012105;28;20041;-75
2024/02/06 08:39:16;;;;;;;7.28;4.55;;;;;;;13.45;35.79;95173.78;4995151;28;20450;-74
2024/02/06 08:41:42;;;;;;;8.55;4.35;;;;;;;13.38;36.74;95171.72;4979564;28;20033;-74
2024/02/06 08:44:08;;;;;;;7.32;4.53;;;;;;;13.43;37.35;95178.31;5010999;28;20030;-75
2024/02/06 08:46:34;;;;;;;5.95;3.90;;;;;;;13.24;36.09;95130.34;4990539;28;20124;-75
2024/02/06 08:49:00;;;;;;;8.50;4.45;;;;;;;13.21;35.47;95174.16;5020176;28;20025;-75
2024/02/06 08:51:26;;;;;;;8.57;6.50;;;;;;;12.34;36.84;95174.63;4993603;28;20500;-75
2024/02/06 08:53:51;;;;;;;7.38;4.65;;;;;;;12.10;37.08;95172.31;4989757;28;20459;-75
2024/02/06 08:56:16;;;;;;;7.75;4.93;;;;;;;12.50;35.62;95169.78;4993061;28;20499;-75
2024/02/06 08:58:42;;;;;;;11.43;5.50;;;;;;;12.45;36.73;95177.16;5022119;28;20026;-75
2024/02/06 09:01:08;;;;;;;11.50;5.35;;;;;;;12.71;37.72;95174.94;5001371;28;20036;-75
2024/02/06 09:03:33;;;;;;;8.70;4.93;;;;;;;12.79;35.54;95175.13;4998120;28;20026;-75
2024/02/06 09:05:59;;;;;;;7.53;4.63;;;;;;;12.61;35.83;95180.09;5004244;28;20014;-75
2024/02/06 09:08:24;;;;;;;8.40;4.60;;;;;;;12.62;35.71;95173.09;4980628;28;20038;-75
2024/02/06 09:10:50;;;;;;;7.85;4.45;;;;;;;12.87;35.00;95161.41;4996616;28;20029;-75
2024/02/06 09:13:15;;;;;;;9.05;4.88;;;;;;;12.80;35.91;95179.38;5013161;28;20030;-75
2024/02/06 09:15:40;;;;;;;9.50;5.03;;;;;;;13.00;34.83;95179.44;5018018;28;20030;-74
2024/02/06 09:18:06;;;;;;;7.45;4.82;;;;;;;13.09;34.57;95170.81;5016495;28;20068;-75
2024/02/06 09:20:31;;;;;;;8.02;4.53;;;;;;;12.74;35.11;95159.03;5034333;28;20025;-76
2024/02/06 09:22:57;;;;;;;7.97;4.20;;;;;;;12.86;35.38;95170.19;4986032;28;20038;-74
2024/02/06 09:25:22;;;;;;;8.00;5.00;;;;;;;12.70;35.53;95145.47;5008753;28;20407;-76
2024/02/06 09:27:48;;;;;;;7.97;3.58;;;;;;;12.62;35.55;95157.47;5003984;28;20041;-76
2024/02/06 09:30:13;;;;;;;8.02;4.57;;;;;;;12.99;34.91;95160.38;5010575;28;20036;-76
2024/02/06 09:32:39;;;;;;;9.77;4.32;;;;;;;12.58;35.70;95158.69;5034836;28;20033;-76
2024/02/06 09:35:06;;;;;;;11.25;4.63;;;;;;;12.53;36.02;95154.69;4997194;28;20471;-76
2024/02/06 09:37:32;;;;;;;10.00;4.25;;;;;;;12.73;35.30;95136.53;4990216;28;20507;-75
2024/02/06 09:39:57;;;;;;;13.00;4.35;;;;;;;12.54;35.73;95137.31;5000217;28;20087;-75
2024/02/06 09:42:23;;;;;;;8.77;4.70;;;;;;;12.73;36.03;95146.94;5016595;28;20421;-75
2024/02/06 09:44:48;;;;;;;16.83;4.97;;;;;;;12.43;36.59;95135.59;5016405;28;20475;-75
2024/02/06 09:47:14;;;;;;;10.32;4.75;;;;;;;12.60;36.37;95128.94;5034285;28;20033;-75
2024/02/06 09:49:39;;;;;;;8.93;4.70;;;;;;;12.47;36.81;95123.13;5016671;28;20029;-75
2024/02/06 09:52:05;;;;;;;10.02;5.10;;;;;;;12.48;37.16;95122.16;5016401;28;20037;-75
2024/02/06 09:54:31;;;;;;;10.90;5.45;;;;;;;12.59;36.60;95119.50;4984021;28;20030;-75
2024/02/06 09:56:56;;;;;;;9.93;5.50;;;;;;;12.90;35.20;95104.63;5016364;28;20388;-75
2024/02/06 09:59:22;;;;;;;10.90;6.40;;;;;;;13.12;35.54;95107.94;4998788;28;20487;-75
2024/02/06 10:01:48;;;;;;;14.43;6.78;;;;;;;12.94;35.99;95110.38;5000532;28;20079;-75
2024/02/06 10:04:15;;;;;;;14.73;6.85;;;;;;;12.61;36.71;95096.72;4998668;28;20037;-79
2024/02/06 10:06:40;;;;;;;13.38;7.35;;;;;;;12.70;37.01;95087.28;5033113;28;20036;-79
2024/02/06 10:09:06;;;;;;;16.63;7.43;;;;;;;12.81;36.32;95092.38;4992398;28;20200;-80
2024/02/06 10:11:33;;;;;;;16.90;7.20;;;;;;;12.77;36.48;95083.19;5016618;28;20104;-75
2024/02/06 10:13:59;;;;;;;11.63;6.72;;;;;;;12.79;36.81;95070.84;4982053;28;20034;-74
2024/02/06 10:16:24;;;;;;;16.02;7.80;;;;;;;12.86;36.58;95064.13;5010831;28;20030;-73
2024/02/06 10:18:52;;;;;;;11.10;6.03;;;;;;;13.02;36.31;95044.53;4984730;28;20018;-73
2024/02/06 10:21:17;;;;;;;14.00;7.00;;;;;;;13.21;35.93;95043.72;4980586;28;20052;-72
2024/02/06 10:23:42;;;;;;;13.18;7.13;;;;;;;13.14;35.51;95044.25;4987456;28;20484;-74
2024/02/06 10:26:08;;;;;;;18.60;6.95;;;;;;;13.05;35.57;95045.06;5030436;28;20534;-72
2024/02/06 10:28:33;;;;;;;13.98;6.55;;;;;;;13.02;35.37;95034.09;4999915;28;20018;-72
2024/02/06 10:30:59;;;;;;;14.65;6.45;;;;;;;13.02;35.02;95028.88;5014021;28;20030;-72
2024/02/06 10:33:24;;;;;;;13.45;6.70;;;;;;;13.12;35.26;95033.16;5001457;28;20032;-72
2024/02/06 10:35:49;;;;;;;10.93;5.90;;;;;;;13.21;34.50;95039.31;4996240;28;20060;-73
2024/02/06 10:38:15;;;;;;;11.75;5.65;;;;;;;13.18;34.70;95035.19;4999343;28;20099;-74
2024/02/06 10:40:42;;;;;;;10.43;5.38;;;;;;;13.19;34.23;95018.56;4999367;28;20549;-73
2024/02/06 10:43:08;;;;;;;12.95;5.70;;;;;;;13.57;34.35;95029.16;5015758;28;20104;-73
2024/02/06 10:45:34;;;;;;;9.18;5.30;;;;;;;13.33;34.11;95006.94;4999087;28;20571;-74
2024/02/06 10:48:00;;;;;;;8.60;5.60;;;;;;;13.65;33.86;95018.84;5015528;28;20469;-74
2024/02/06 10:50:26;;;;;;;11.80;5.55;;;;;;;13.51;34.45;95007.06;4982982;28;20033;-74
2024/02/06 10:52:52;;;;;;;11.68;6.10;;;;;;;13.41;34.06;95001.03;4982984;28;20419;-74
2024/02/06 10:55:18;;;;;;;8.90;4.70;;;;;;;13.44;33.99;95005.97;5014942;28;20029;-74
2024/02/06 10:57:45;;;;;;;9.60;5.25;;;;;;;13.81;32.69;94990.34;5032900;28;20041;-74
2024/02/06 11:00:19;;;;;;;8.80;4.75;;;;;;;14.09;32.20;94988.56;4998915;28;20549;-74
2024/02/06 11:02:46;;;;;;;7.95;4.60;;;;;;;13.92;32.66;94985.91;4984883;28;20029;-74
2024/02/06 11:05:36;;;;;;;9.93;5.03;;;;;;;13.91;32.88;94976.44;4983039;28;20116;-74
2024/02/06 11:08:04;;;;;;;11.33;5.47;;;;;;;13.77;32.43;94947.22;5015062;28;20061;-73
2024/02/06 11:10:36;;;;;;;9.63;5.22;;;;;;;13.92;32.73;94968.44;5014836;28;20491;-73
2024/02/06 11:13:08;;;;;;;11.68;4.40;;;;;;;13.93;32.35;94959.66;5015628;28;20041;-74
2024/02/06 11:15:39;;;;;;;8.63;4.50;;;;;;;13.79;32.59;94940.06;4998565;28;20040;-74
2024/02/06 11:18:07;;;;;;;7.78;4.45;;;;;;;14.07;32.49;94942.69;5015056;28;20104;-74
2024/02/06 11:20:33;;;;;;;6.35;4.35;;;;;;;13.81;32.63;94922.44;4982537;28;20041;-74
2024/02/06 11:22:59;;;;;;;8.90;4.82;;;;;;;14.17;32.26;94932.19;4998637;28;20029;-74
2024/02/06 11:25:27;;;;;;;6.82;4.13;;;;;;;14.07;32.56;94937.47;5032382;28;20055;-74
2024/02/06 11:27:55;;;;;;;8.48;4.78;;;;;;;14.25;32.63;94930.47;5015136;28;20496;-74
2024/02/06 11:30:21;;;;;;;7.40;4.45;;;;;;;14.38;32.06;94927.53;4998568;28;20028;-74